sensor_id;sensor_type;location;lat;lon;timestamp;P1;durP1;ratioP1;P2;durP2;ratioP2
57085;SDS011;42964;42.910;23.792;2023-06-14T00:02:22;10.32;;;6.82;;
57085;SDS011;42964;42.910;23.792;2023-06-14T00:07:22;11.57;;;6.97;;
57085;SDS011;42964;42.910;23.792;2023-06-14T00:12:33;11.27;;;6.63;;
57085;SDS011;42964;42.910;23.792;2023-06-14T00:17:32;12.73;;;6.53;;
57085;SDS011;42964;42.910;23.792;2023-06-14T00:22:32;12.10;;;6.88;;
57085;SDS011;42964;42.910;23.792;2023-06-14T00:27:31;10.50;;;5.95;;
57085;SDS011;42964;42.910;23.792;2023-06-14T00:32:30;10.60;;;6.47;;
57085;SDS011;42964;42.910;23.792;2023-06-14T00:37:29;14.93;;;6.88;;
57085;SDS011;42964;42.910;23.792;2023-06-14T00:42:28;16.33;;;9.05;;
57085;SDS011;42964;42.910;23.792;2023-06-14T00:47:27;17.60;;;9.40;;
57085;SDS011;42964;42.910;23.792;2023-06-14T00:52:26;15.40;;;9.48;;
57085;SDS011;42964;42.910;23.792;2023-06-14T00:57:26;14.48;;;8.63;;
57085;SDS011;42964;42.910;23.792;2023-06-14T01:02:26;17.77;;;9.05;;
57085;SDS011;42964;42.910;23.792;2023-06-14T01:12:46;18.77;;;9.70;;
57085;SDS011;42964;42.910;23.792;2023-06-14T01:17:48;21.60;;;9.48;;
57085;SDS011;42964;42.910;23.792;2023-06-14T01:22:50;16.60;;;9.43;;
57085;SDS011;42964;42.910;23.792;2023-06-14T01:28:00;17.85;;;10.07;;
57085;SDS011;42964;42.910;23.792;2023-06-14T01:33:02;20.25;;;9.70;;
57085;SDS011;42964;42.910;23.792;2023-06-14T01:38:03;19.55;;;10.40;;
57085;SDS011;42964;42.910;23.792;2023-06-14T01:43:04;17.40;;;10.15;;
57085;SDS011;42964;42.910;23.792;2023-06-14T01:48:04;22.30;;;10.40;;
57085;SDS011;42964;42.910;23.792;2023-06-14T01:53:06;20.90;;;10.25;;
57085;SDS011;42964;42.910;23.792;2023-06-14T01:58:06;19.10;;;10.50;;
57085;SDS011;42964;42.910;23.792;2023-06-14T02:03:05;23.08;;;10.55;;
57085;SDS011;42964;42.910;23.792;2023-06-14T02:08:04;21.42;;;10.85;;
57085;SDS011;42964;42.910;23.792;2023-06-14T02:13:03;21.95;;;11.00;;
57085;SDS011;42964;42.910;23.792;2023-06-14T02:18:02;29.35;;;11.32;;
57085;SDS011;42964;42.910;23.792;2023-06-14T02:23:02;28.25;;;12.15;;
57085;SDS011;42964;42.910;23.792;2023-06-14T02:28:01;24.05;;;12.57;;
57085;SDS011;42964;42.910;23.792;2023-06-14T02:33:00;27.30;;;13.07;;
57085;SDS011;42964;42.910;23.792;2023-06-14T02:37:59;32.45;;;13.68;;
57085;SDS011;42964;42.910;23.792;2023-06-14T02:47:56;28.53;;;13.77;;
57085;SDS011;42964;42.910;23.792;2023-06-14T02:52:55;29.25;;;14.13;;
57085;SDS011;42964;42.910;23.792;2023-06-14T02:57:55;31.15;;;13.73;;
57085;SDS011;42964;42.910;23.792;2023-06-14T03:02:54;31.05;;;13.70;;
57085;SDS011;42964;42.910;23.792;2023-06-14T03:12:52;33.47;;;13.93;;
57085;SDS011;42964;42.910;23.792;2023-06-14T03:17:51;33.38;;;14.38;;
57085;SDS011;42964;42.910;23.792;2023-06-14T03:22:52;38.10;;;15.55;;
57085;SDS011;42964;42.910;23.792;2023-06-14T03:27:52;35.22;;;15.43;;
57085;SDS011;42964;42.910;23.792;2023-06-14T03:32:51;36.10;;;14.93;;
57085;SDS011;42964;42.910;23.792;2023-06-14T03:37:51;30.60;;;13.93;;
57085;SDS011;42964;42.910;23.792;2023-06-14T03:42:50;34.75;;;14.60;;
57085;SDS011;42964;42.910;23.792;2023-06-14T03:47:49;35.63;;;13.88;;
57085;SDS011;42964;42.910;23.792;2023-06-14T03:52:49;33.47;;;13.75;;
57085;SDS011;42964;42.910;23.792;2023-06-14T03:57:48;33.10;;;13.27;;
57085;SDS011;42964;42.910;23.792;2023-06-14T04:02:47;29.52;;;13.77;;
57085;SDS011;42964;42.910;23.792;2023-06-14T04:12:47;27.65;;;12.27;;
57085;SDS011;42964;42.910;23.792;2023-06-14T04:17:46;28.25;;;12.55;;
57085;SDS011;42964;42.910;23.792;2023-06-14T04:22:45;24.70;;;12.45;;
57085;SDS011;42964;42.910;23.792;2023-06-14T04:27:44;27.13;;;12.95;;
57085;SDS011;42964;42.910;23.792;2023-06-14T04:32:43;25.40;;;12.52;;
57085;SDS011;42964;42.910;23.792;2023-06-14T04:37:42;25.88;;;12.50;;
57085;SDS011;42964;42.910;23.792;2023-06-14T04:42:41;24.63;;;11.23;;
57085;SDS011;42964;42.910;23.792;2023-06-14T04:47:44;21.58;;;11.10;;
57085;SDS011;42964;42.910;23.792;2023-06-14T04:52:44;16.80;;;10.48;;
57085;SDS011;42964;42.910;23.792;2023-06-14T04:57:43;19.20;;;9.93;;
57085;SDS011;42964;42.910;23.792;2023-06-14T05:02:42;19.88;;;9.75;;
57085;SDS011;42964;42.910;23.792;2023-06-14T05:07:41;15.85;;;9.57;;
57085;SDS011;42964;42.910;23.792;2023-06-14T05:12:40;17.10;;;10.00;;
57085;SDS011;42964;42.910;23.792;2023-06-14T05:17:42;16.83;;;9.75;;
57085;SDS011;42964;42.910;23.792;2023-06-14T05:22:41;17.17;;;9.80;;
57085;SDS011;42964;42.910;23.792;2023-06-14T05:27:41;12.05;;;8.00;;
57085;SDS011;42964;42.910;23.792;2023-06-14T05:32:40;11.63;;;7.30;;
57085;SDS011;42964;42.910;23.792;2023-06-14T05:37:40;12.32;;;7.07;;
57085;SDS011;42964;42.910;23.792;2023-06-14T05:42:39;10.02;;;5.60;;
57085;SDS011;42964;42.910;23.792;2023-06-14T05:47:38;7.50;;;4.22;;
57085;SDS011;42964;42.910;23.792;2023-06-14T05:52:37;7.07;;;5.00;;
57085;SDS011;42964;42.910;23.792;2023-06-14T05:57:36;5.68;;;3.78;;
57085;SDS011;42964;42.910;23.792;2023-06-14T06:02:35;9.70;;;4.90;;
57085;SDS011;42964;42.910;23.792;2023-06-14T06:07:33;6.40;;;4.10;;
57085;SDS011;42964;42.910;23.792;2023-06-14T06:12:32;5.50;;;3.35;;
57085;SDS011;42964;42.910;23.792;2023-06-14T06:17:31;5.80;;;3.50;;
57085;SDS011;42964;42.910;23.792;2023-06-14T06:22:30;6.45;;;3.42;;
57085;SDS011;42964;42.910;23.792;2023-06-14T06:27:29;6.25;;;3.53;;
57085;SDS011;42964;42.910;23.792;2023-06-14T06:32:29;5.28;;;3.17;;
57085;SDS011;42964;42.910;23.792;2023-06-14T06:37:28;4.82;;;2.80;;
57085;SDS011;42964;42.910;23.792;2023-06-14T06:59:11;3.03;;;2.45;;
57085;SDS011;42964;42.910;23.792;2023-06-14T07:04:12;3.22;;;2.85;;
57085;SDS011;42964;42.910;23.792;2023-06-14T07:09:12;4.43;;;2.50;;
57085;SDS011;42964;42.910;23.792;2023-06-14T07:14:12;5.05;;;3.00;;
57085;SDS011;42964;42.910;23.792;2023-06-14T07:19:11;4.82;;;2.90;;
57085;SDS011;42964;42.910;23.792;2023-06-14T07:24:10;5.60;;;3.00;;
57085;SDS011;42964;42.910;23.792;2023-06-14T07:29:10;4.68;;;3.90;;
57085;SDS011;42964;42.910;23.792;2023-06-14T07:34:09;5.68;;;4.30;;
57085;SDS011;42964;42.910;23.792;2023-06-14T07:39:08;6.95;;;4.28;;
57085;SDS011;42964;42.910;23.792;2023-06-14T07:44:08;7.57;;;4.20;;
57085;SDS011;42964;42.910;23.792;2023-06-14T07:49:07;6.75;;;4.18;;
57085;SDS011;42964;42.910;23.792;2023-06-14T07:54:06;7.85;;;4.38;;
57085;SDS011;42964;42.910;23.792;2023-06-14T07:59:07;7.57;;;4.07;;
57085;SDS011;42964;42.910;23.792;2023-06-14T08:04:06;6.72;;;4.47;;
57085;SDS011;42964;42.910;23.792;2023-06-14T08:09:05;6.90;;;4.32;;
57085;SDS011;42964;42.910;23.792;2023-06-14T08:14:04;7.38;;;4.05;;
57085;SDS011;42964;42.910;23.792;2023-06-14T08:19:03;7.40;;;4.45;;
57085;SDS011;42964;42.910;23.792;2023-06-14T08:24:02;6.28;;;4.05;;
57085;SDS011;42964;42.910;23.792;2023-06-14T08:29:02;6.53;;;4.72;;
57085;SDS011;42964;42.910;23.792;2023-06-14T08:34:01;10.25;;;5.53;;
57085;SDS011;42964;42.910;23.792;2023-06-14T08:39:00;5.35;;;4.55;;
57085;SDS011;42964;42.910;23.792;2023-06-14T08:43:59;7.13;;;5.20;;
57085;SDS011;42964;42.910;23.792;2023-06-14T08:48:58;5.78;;;4.70;;
57085;SDS011;42964;42.910;23.792;2023-06-14T08:53:57;8.43;;;5.22;;
57085;SDS011;42964;42.910;23.792;2023-06-14T08:58:57;8.25;;;4.68;;
57085;SDS011;42964;42.910;23.792;2023-06-14T09:04:01;7.80;;;5.55;;
57085;SDS011;42964;42.910;23.792;2023-06-14T09:09:01;6.82;;;4.90;;
57085;SDS011;42964;42.910;23.792;2023-06-14T09:14:00;10.55;;;5.85;;
57085;SDS011;42964;42.910;23.792;2023-06-14T09:19:00;10.15;;;6.07;;
57085;SDS011;42964;42.910;23.792;2023-06-14T09:23:59;8.90;;;6.20;;
57085;SDS011;42964;42.910;23.792;2023-06-14T09:28:58;8.50;;;5.97;;
57085;SDS011;42964;42.910;23.792;2023-06-14T09:33:58;8.45;;;6.20;;
57085;SDS011;42964;42.910;23.792;2023-06-14T09:39:01;8.10;;;6.60;;
57085;SDS011;42964;42.910;23.792;2023-06-14T09:44:06;9.35;;;6.57;;
57085;SDS011;42964;42.910;23.792;2023-06-14T09:49:06;10.43;;;5.93;;
57085;SDS011;42964;42.910;23.792;2023-06-14T09:54:05;8.02;;;6.20;;
57085;SDS011;42964;42.910;23.792;2023-06-14T09:59:05;9.05;;;6.53;;
57085;SDS011;42964;42.910;23.792;2023-06-14T10:04:07;9.63;;;7.85;;
57085;SDS011;42964;42.910;23.792;2023-06-14T10:09:08;9.05;;;7.13;;
57085;SDS011;42964;42.910;23.792;2023-06-14T10:14:08;10.05;;;7.38;;
57085;SDS011;42964;42.910;23.792;2023-06-14T10:24:19;8.38;;;6.05;;
57085;SDS011;42964;42.910;23.792;2023-06-14T10:29:23;8.80;;;7.00;;
57085;SDS011;42964;42.910;23.792;2023-06-14T10:34:23;6.70;;;5.90;;
57085;SDS011;42964;42.910;23.792;2023-06-14T10:39:26;8.77;;;6.85;;
57085;SDS011;42964;42.910;23.792;2023-06-14T10:49:37;7.88;;;6.57;;
57085;SDS011;42964;42.910;23.792;2023-06-14T10:54:55;8.30;;;6.53;;
57085;SDS011;42964;42.910;23.792;2023-06-14T11:00:08;9.95;;;6.30;;
57085;SDS011;42964;42.910;23.792;2023-06-14T11:05:15;7.70;;;6.75;;
57085;SDS011;42964;42.910;23.792;2023-06-14T11:15:31;7.75;;;5.50;;
57085;SDS011;42964;42.910;23.792;2023-06-14T11:20:33;8.35;;;5.22;;
57085;SDS011;42964;42.910;23.792;2023-06-14T11:25:33;7.25;;;5.30;;
57085;SDS011;42964;42.910;23.792;2023-06-14T11:30:32;8.75;;;5.40;;
57085;SDS011;42964;42.910;23.792;2023-06-14T11:35:32;7.63;;;4.78;;
57085;SDS011;42964;42.910;23.792;2023-06-14T11:40:32;6.45;;;4.72;;
57085;SDS011;42964;42.910;23.792;2023-06-14T11:45:31;6.05;;;4.28;;
57085;SDS011;42964;42.910;23.792;2023-06-14T11:50:30;10.18;;;4.75;;
57085;SDS011;42964;42.910;23.792;2023-06-14T11:55:29;6.25;;;4.72;;
57085;SDS011;42964;42.910;23.792;2023-06-14T12:00:28;5.75;;;4.45;;
57085;SDS011;42964;42.910;23.792;2023-06-14T12:05:27;7.53;;;4.93;;
57085;SDS011;42964;42.910;23.792;2023-06-14T12:10:27;5.97;;;4.97;;
57085;SDS011;42964;42.910;23.792;2023-06-14T12:15:30;6.68;;;5.20;;
57085;SDS011;42964;42.910;23.792;2023-06-14T12:20:30;5.50;;;4.22;;
57085;SDS011;42964;42.910;23.792;2023-06-14T12:25:30;6.88;;;4.68;;
57085;SDS011;42964;42.910;23.792;2023-06-14T12:30:31;6.07;;;5.15;;
57085;SDS011;42964;42.910;23.792;2023-06-14T12:35:30;6.95;;;4.55;;
57085;SDS011;42964;42.910;23.792;2023-06-14T12:40:29;6.88;;;5.00;;
57085;SDS011;42964;42.910;23.792;2023-06-14T12:45:28;6.60;;;5.50;;
57085;SDS011;42964;42.910;23.792;2023-06-14T12:50:27;8.68;;;5.65;;
57085;SDS011;42964;42.910;23.792;2023-06-14T12:55:26;9.73;;;5.93;;
57085;SDS011;42964;42.910;23.792;2023-06-14T13:00:25;6.72;;;5.43;;
57085;SDS011;42964;42.910;23.792;2023-06-14T13:05:24;8.30;;;6.10;;
57085;SDS011;42964;42.910;23.792;2023-06-14T13:10:24;6.93;;;6.03;;
57085;SDS011;42964;42.910;23.792;2023-06-14T13:15:24;9.35;;;6.63;;
57085;SDS011;42964;42.910;23.792;2023-06-14T13:20:23;8.98;;;6.82;;
57085;SDS011;42964;42.910;23.792;2023-06-14T13:25:22;8.30;;;6.50;;
57085;SDS011;42964;42.910;23.792;2023-06-14T13:30:21;9.93;;;7.20;;
57085;SDS011;42964;42.910;23.792;2023-06-14T13:35:20;8.40;;;6.25;;
57085;SDS011;42964;42.910;23.792;2023-06-14T13:40:19;7.97;;;5.38;;
57085;SDS011;42964;42.910;23.792;2023-06-14T13:45:18;9.07;;;5.78;;
57085;SDS011;42964;42.910;23.792;2023-06-14T13:50:17;7.45;;;5.90;;
57085;SDS011;42964;42.910;23.792;2023-06-14T13:55:16;10.43;;;5.90;;
57085;SDS011;42964;42.910;23.792;2023-06-14T14:00:15;8.63;;;6.43;;
57085;SDS011;42964;42.910;23.792;2023-06-14T14:05:15;9.70;;;6.10;;
57085;SDS011;42964;42.910;23.792;2023-06-14T14:10:14;7.00;;;5.72;;
57085;SDS011;42964;42.910;23.792;2023-06-14T14:15:13;15.55;;;7.10;;
57085;SDS011;42964;42.910;23.792;2023-06-14T14:20:13;11.85;;;6.70;;
57085;SDS011;42964;42.910;23.792;2023-06-14T14:25:14;9.48;;;6.20;;
57085;SDS011;42964;42.910;23.792;2023-06-14T14:30:13;9.93;;;6.60;;
57085;SDS011;42964;42.910;23.792;2023-06-14T14:35:12;9.73;;;6.15;;
57085;SDS011;42964;42.910;23.792;2023-06-14T14:40:11;9.07;;;6.85;;
57085;SDS011;42964;42.910;23.792;2023-06-14T14:45:11;14.18;;;7.78;;
57085;SDS011;42964;42.910;23.792;2023-06-14T14:50:10;12.23;;;6.90;;
57085;SDS011;42964;42.910;23.792;2023-06-14T14:55:09;10.55;;;6.65;;
57085;SDS011;42964;42.910;23.792;2023-06-14T15:00:08;12.73;;;7.30;;
57085;SDS011;42964;42.910;23.792;2023-06-14T15:05:08;12.90;;;7.38;;
57085;SDS011;42964;42.910;23.792;2023-06-14T15:10:07;9.05;;;5.65;;
57085;SDS011;42964;42.910;23.792;2023-06-14T15:15:07;8.18;;;6.38;;
57085;SDS011;42964;42.910;23.792;2023-06-14T15:20:07;9.40;;;7.28;;
57085;SDS011;42964;42.910;23.792;2023-06-14T15:25:07;12.15;;;9.43;;
57085;SDS011;42964;42.910;23.792;2023-06-14T15:30:06;11.85;;;8.20;;
57085;SDS011;42964;42.910;23.792;2023-06-14T15:35:06;11.82;;;8.48;;
57085;SDS011;42964;42.910;23.792;2023-06-14T15:40:05;13.27;;;9.07;;
57085;SDS011;42964;42.910;23.792;2023-06-14T15:45:06;13.40;;;10.02;;
57085;SDS011;42964;42.910;23.792;2023-06-14T15:50:06;18.13;;;11.48;;
57085;SDS011;42964;42.910;23.792;2023-06-14T15:55:08;17.30;;;11.32;;
57085;SDS011;42964;42.910;23.792;2023-06-14T16:00:07;14.82;;;10.43;;
57085;SDS011;42964;42.910;23.792;2023-06-14T16:05:06;15.70;;;11.23;;
57085;SDS011;42964;42.910;23.792;2023-06-14T16:10:06;19.67;;;11.98;;
57085;SDS011;42964;42.910;23.792;2023-06-14T16:15:05;18.70;;;11.73;;
57085;SDS011;42964;42.910;23.792;2023-06-14T16:20:04;18.33;;;11.75;;
57085;SDS011;42964;42.910;23.792;2023-06-14T16:25:04;18.63;;;11.02;;
57085;SDS011;42964;42.910;23.792;2023-06-14T16:30:05;16.10;;;10.98;;
57085;SDS011;42964;42.910;23.792;2023-06-14T16:35:05;19.83;;;11.80;;
57085;SDS011;42964;42.910;23.792;2023-06-14T16:40:04;17.63;;;12.07;;
57085;SDS011;42964;42.910;23.792;2023-06-14T16:45:04;19.45;;;13.20;;
57085;SDS011;42964;42.910;23.792;2023-06-14T16:50:03;22.13;;;14.85;;
57085;SDS011;42964;42.910;23.792;2023-06-14T16:55:03;20.33;;;14.73;;
57085;SDS011;42964;42.910;23.792;2023-06-14T17:00:03;21.33;;;11.95;;
57085;SDS011;42964;42.910;23.792;2023-06-14T17:05:02;14.35;;;7.78;;
57085;SDS011;42964;42.910;23.792;2023-06-14T17:10:01;11.27;;;6.88;;
57085;SDS011;42964;42.910;23.792;2023-06-14T17:15:01;7.05;;;4.63;;
57085;SDS011;42964;42.910;23.792;2023-06-14T17:20:00;9.48;;;5.35;;
57085;SDS011;42964;42.910;23.792;2023-06-14T17:25:00;7.82;;;5.13;;
57085;SDS011;42964;42.910;23.792;2023-06-14T17:29:59;9.20;;;5.38;;
57085;SDS011;42964;42.910;23.792;2023-06-14T17:34:58;11.25;;;6.35;;
57085;SDS011;42964;42.910;23.792;2023-06-14T17:39:57;8.82;;;4.65;;
57085;SDS011;42964;42.910;23.792;2023-06-14T17:44:56;5.57;;;3.72;;
57085;SDS011;42964;42.910;23.792;2023-06-14T17:49:55;7.72;;;3.90;;
57085;SDS011;42964;42.910;23.792;2023-06-14T17:54:54;6.35;;;3.22;;
57085;SDS011;42964;42.910;23.792;2023-06-14T17:59:53;6.28;;;3.22;;
57085;SDS011;42964;42.910;23.792;2023-06-14T18:04:54;9.40;;;3.90;;
57085;SDS011;42964;42.910;23.792;2023-06-14T18:09:53;7.38;;;3.63;;
57085;SDS011;42964;42.910;23.792;2023-06-14T18:14:52;7.97;;;3.90;;
57085;SDS011;42964;42.910;23.792;2023-06-14T18:19:51;9.95;;;6.15;;
57085;SDS011;42964;42.910;23.792;2023-06-14T18:24:50;8.90;;;5.13;;
57085;SDS011;42964;42.910;23.792;2023-06-14T18:29:49;8.45;;;5.70;;
57085;SDS011;42964;42.910;23.792;2023-06-14T18:34:48;6.38;;;4.80;;
57085;SDS011;42964;42.910;23.792;2023-06-14T18:39:47;9.52;;;6.43;;
57085;SDS011;42964;42.910;23.792;2023-06-14T18:44:46;9.23;;;6.10;;
57085;SDS011;42964;42.910;23.792;2023-06-14T18:49:45;11.55;;;6.13;;
57085;SDS011;42964;42.910;23.792;2023-06-14T18:54:44;11.65;;;7.38;;
57085;SDS011;42964;42.910;23.792;2023-06-14T18:59:44;15.73;;;7.55;;
57085;SDS011;42964;42.910;23.792;2023-06-14T19:04:43;10.70;;;6.07;;
57085;SDS011;42964;42.910;23.792;2023-06-14T19:09:42;11.75;;;6.78;;
57085;SDS011;42964;42.910;23.792;2023-06-14T19:14:40;11.82;;;6.68;;
57085;SDS011;42964;42.910;23.792;2023-06-14T19:19:39;12.20;;;7.13;;
57085;SDS011;42964;42.910;23.792;2023-06-14T19:24:39;16.30;;;8.95;;
57085;SDS011;42964;42.910;23.792;2023-06-14T19:29:38;16.25;;;9.15;;
57085;SDS011;42964;42.910;23.792;2023-06-14T19:34:37;13.27;;;8.95;;
57085;SDS011;42964;42.910;23.792;2023-06-14T19:39:41;13.98;;;8.70;;
57085;SDS011;42964;42.910;23.792;2023-06-14T19:44:40;16.15;;;8.70;;
57085;SDS011;42964;42.910;23.792;2023-06-14T19:49:39;14.50;;;8.85;;
57085;SDS011;42964;42.910;23.792;2023-06-14T19:54:38;15.77;;;8.90;;
57085;SDS011;42964;42.910;23.792;2023-06-14T19:59:37;12.90;;;7.80;;
57085;SDS011;42964;42.910;23.792;2023-06-14T20:04:36;18.25;;;9.38;;
57085;SDS011;42964;42.910;23.792;2023-06-14T20:09:35;17.48;;;10.00;;
57085;SDS011;42964;42.910;23.792;2023-06-14T20:14:34;20.00;;;10.75;;
57085;SDS011;42964;42.910;23.792;2023-06-14T20:19:33;24.45;;;13.02;;
57085;SDS011;42964;42.910;23.792;2023-06-14T20:24:32;24.77;;;16.20;;
57085;SDS011;42964;42.910;23.792;2023-06-14T20:29:31;26.20;;;18.02;;
57085;SDS011;42964;42.910;23.792;2023-06-14T20:34:29;18.38;;;14.38;;
57085;SDS011;42964;42.910;23.792;2023-06-14T20:39:28;21.05;;;13.10;;
57085;SDS011;42964;42.910;23.792;2023-06-14T20:44:27;34.83;;;17.52;;
57085;SDS011;42964;42.910;23.792;2023-06-14T20:49:27;32.10;;;17.02;;
57085;SDS011;42964;42.910;23.792;2023-06-14T20:54:26;21.65;;;12.15;;
57085;SDS011;42964;42.910;23.792;2023-06-14T20:59:25;22.15;;;10.25;;
57085;SDS011;42964;42.910;23.792;2023-06-14T21:04:24;16.75;;;8.40;;
57085;SDS011;42964;42.910;23.792;2023-06-14T21:09:24;15.80;;;8.23;;
57085;SDS011;42964;42.910;23.792;2023-06-14T21:14:23;15.70;;;7.97;;
57085;SDS011;42964;42.910;23.792;2023-06-14T21:19:22;20.70;;;9.60;;
57085;SDS011;42964;42.910;23.792;2023-06-14T21:24:21;17.70;;;9.10;;
57085;SDS011;42964;42.910;23.792;2023-06-14T21:29:20;17.35;;;9.63;;
57085;SDS011;42964;42.910;23.792;2023-06-14T21:34:19;15.55;;;8.80;;
57085;SDS011;42964;42.910;23.792;2023-06-14T21:39:18;17.75;;;8.65;;
57085;SDS011;42964;42.910;23.792;2023-06-14T21:44:18;17.38;;;9.35;;
57085;SDS011;42964;42.910;23.792;2023-06-14T21:49:17;15.48;;;8.93;;
57085;SDS011;42964;42.910;23.792;2023-06-14T21:54:16;14.57;;;8.50;;
57085;SDS011;42964;42.910;23.792;2023-06-14T21:59:15;14.32;;;9.13;;
57085;SDS011;42964;42.910;23.792;2023-06-14T22:04:14;14.43;;;8.77;;
57085;SDS011;42964;42.910;23.792;2023-06-14T22:09:13;12.98;;;8.00;;
57085;SDS011;42964;42.910;23.792;2023-06-14T22:14:13;12.68;;;7.78;;
57085;SDS011;42964;42.910;23.792;2023-06-14T22:19:13;13.52;;;7.88;;
57085;SDS011;42964;42.910;23.792;2023-06-14T22:24:13;18.10;;;9.15;;
57085;SDS011;42964;42.910;23.792;2023-06-14T22:29:16;16.58;;;9.60;;
57085;SDS011;42964;42.910;23.792;2023-06-14T22:34:15;23.45;;;10.68;;
57085;SDS011;42964;42.910;23.792;2023-06-14T22:39:14;20.10;;;10.93;;
57085;SDS011;42964;42.910;23.792;2023-06-14T22:44:13;21.70;;;11.60;;
57085;SDS011;42964;42.910;23.792;2023-06-14T22:49:15;18.35;;;10.98;;
57085;SDS011;42964;42.910;23.792;2023-06-14T22:54:15;21.50;;;11.60;;
57085;SDS011;42964;42.910;23.792;2023-06-14T22:59:14;21.30;;;10.32;;
57085;SDS011;42964;42.910;23.792;2023-06-14T23:04:16;21.95;;;9.43;;
57085;SDS011;42964;42.910;23.792;2023-06-14T23:09:21;14.57;;;8.50;;
57085;SDS011;42964;42.910;23.792;2023-06-14T23:14:19;17.00;;;9.75;;
57085;SDS011;42964;42.910;23.792;2023-06-14T23:19:19;18.35;;;9.57;;
57085;SDS011;42964;42.910;23.792;2023-06-14T23:24:21;17.58;;;9.13;;
57085;SDS011;42964;42.910;23.792;2023-06-14T23:29:20;21.25;;;9.80;;
57085;SDS011;42964;42.910;23.792;2023-06-14T23:34:22;16.30;;;9.70;;
57085;SDS011;42964;42.910;23.792;2023-06-14T23:39:33;16.23;;;8.93;;
57085;SDS011;42964;42.910;23.792;2023-06-14T23:44:32;17.20;;;8.90;;
57085;SDS011;42964;42.910;23.792;2023-06-14T23:49:35;22.30;;;9.65;;
57085;SDS011;42964;42.910;23.792;2023-06-14T23:54:34;18.00;;;9.38;;
57085;SDS011;42964;42.910;23.792;2023-06-14T23:59:33;20.35;;;9.93;;
